createdAt,value
2018-06-01T00:00:36.685Z,0
2018-06-01T00:01:37.216Z,0
2018-06-01T00:02:37.780Z,0
2018-06-01T00:03:38.347Z,0
2018-06-01T00:04:38.890Z,0
2018-06-01T00:05:39.453Z,0
2018-06-01T00:06:39.995Z,0
2018-06-01T00:07:40.542Z,0
2018-06-01T00:08:41.095Z,0
2018-06-01T00:09:41.639Z,0
2018-06-01T00:10:42.192Z,0
2018-06-01T00:11:42.741Z,0
2018-06-01T00:12:43.292Z,0
2018-06-01T00:13:43.848Z,0
2018-06-01T00:14:44.400Z,0
2018-06-01T00:15:44.949Z,0
2018-06-01T00:16:45.494Z,0
2018-06-01T00:17:46.046Z,0
2018-06-01T00:18:46.596Z,0
2018-06-01T00:19:47.151Z,0
2018-06-01T00:20:47.702Z,0
2018-06-01T00:21:48.252Z,0
2018-06-01T00:22:48.800Z,0
2018-06-01T00:23:49.353Z,0
2018-06-01T00:24:49.897Z,0
2018-06-01T00:25:50.449Z,0
2018-06-01T00:26:51.111Z,0
2018-06-01T00:27:51.660Z,0
2018-06-01T00:28:52.214Z,0
2018-06-01T00:29:52.767Z,0
2018-06-01T00:30:53.310Z,0
2018-06-01T00:31:53.870Z,0
2018-06-01T00:32:54.413Z,0
2018-06-01T00:33:54.962Z,0
2018-06-01T00:34:55.507Z,0
2018-06-01T00:35:56.052Z,0
2018-06-01T00:36:56.600Z,0
2018-06-01T00:37:57.153Z,0
2018-06-01T00:38:57.706Z,0
2018-06-01T00:39:58.258Z,0
2018-06-01T00:40:58.809Z,0
2018-06-01T00:41:59.358Z,0
2018-06-01T00:42:59.910Z,0
2018-06-01T00:44:00.466Z,0
2018-06-01T00:45:01.018Z,0
2018-06-01T00:46:01.569Z,0
2018-06-01T00:47:02.121Z,0
2018-06-01T00:48:02.671Z,0
2018-06-01T00:49:03.223Z,0
2018-06-01T00:50:03.774Z,0
2018-06-01T00:51:04.323Z,0
2018-06-01T00:52:04.873Z,0
2018-06-01T00:53:05.425Z,0
2018-06-01T00:54:05.977Z,0
2018-06-01T00:55:06.528Z,0
2018-06-01T00:56:07.078Z,0
2018-06-01T00:57:07.629Z,0
2018-06-01T00:58:08.177Z,0
2018-06-01T00:59:08.725Z,0
2018-06-01T01:00:09.280Z,0
2018-06-01T01:01:09.832Z,0
2018-06-01T01:02:10.395Z,0
2018-06-01T01:03:10.941Z,0
2018-06-01T01:04:11.490Z,0
2018-06-01T01:05:12.041Z,0
2018-06-01T01:06:12.592Z,0
2018-06-01T01:07:13.151Z,0
2018-06-01T01:08:13.700Z,0
2018-06-01T01:09:14.252Z,0
2018-06-01T01:10:14.797Z,0
2018-06-01T01:11:15.355Z,0
2018-06-01T01:12:15.905Z,0
2018-06-01T01:13:16.453Z,0
2018-06-01T01:14:17.004Z,0
2018-06-01T01:15:17.556Z,0
2018-06-01T01:16:18.113Z,0
2018-06-01T01:17:18.659Z,0
2018-06-01T01:18:19.205Z,0
2018-06-01T01:19:19.756Z,0
2018-06-01T01:20:20.307Z,0
2018-06-01T01:21:20.855Z,0
2018-06-01T01:22:21.409Z,0
2018-06-01T01:23:21.965Z,0
2018-06-01T01:24:22.514Z,0
2018-06-01T01:25:23.060Z,0
2018-06-01T01:26:23.617Z,0
2018-06-01T01:27:24.162Z,0
2018-06-01T01:28:24.707Z,0
2018-06-01T01:29:25.273Z,0
2018-06-01T01:30:25.812Z,0
2018-06-01T01:31:26.363Z,0
2018-06-01T01:32:26.906Z,0
2018-06-01T01:33:27.459Z,0
2018-06-01T01:34:28.004Z,0
2018-06-01T01:35:28.557Z,0
2018-06-01T01:36:29.113Z,0
2018-06-01T01:37:29.661Z,0
2018-06-01T01:38:30.212Z,0
2018-06-01T01:39:30.767Z,0
2018-06-01T01:40:31.315Z,0
2018-06-01T01:41:31.864Z,0
2018-06-01T01:42:32.418Z,0
2018-06-01T01:43:32.969Z,0
2018-06-01T01:44:33.521Z,0
2018-06-01T01:45:34.073Z,0
2018-06-01T01:46:34.624Z,0
2018-06-01T01:47:35.176Z,0
2018-06-01T01:48:35.722Z,0
2018-06-01T01:49:36.280Z,0
2018-06-01T01:50:36.826Z,0
2018-06-01T01:51:37.374Z,0
2018-06-01T01:52:37.928Z,0
2018-06-01T01:53:38.482Z,0
2018-06-01T01:54:39.032Z,0
2018-06-01T01:55:39.582Z,0
2018-06-01T01:56:40.132Z,0
2018-06-01T01:57:40.677Z,0
2018-06-01T01:58:41.229Z,0
2018-06-01T01:59:41.774Z,0
2018-06-01T02:00:42.326Z,0
2018-06-01T02:01:42.875Z,0
2018-06-01T02:02:43.428Z,0
2018-06-01T02:03:43.985Z,0
2018-06-01T02:04:44.531Z,0
2018-06-01T02:05:45.079Z,0
2018-06-01T02:06:45.632Z,0
2018-06-01T02:07:46.178Z,0
2018-06-01T02:08:46.731Z,0
2018-06-01T02:09:47.280Z,0
2018-06-01T02:10:47.831Z,0
2018-06-01T02:11:48.380Z,0
2018-06-01T02:12:48.929Z,0
2018-06-01T02:13:49.483Z,0
2018-06-01T02:14:50.031Z,0
2018-06-01T02:15:50.582Z,0
2018-06-01T02:16:51.135Z,0
2018-06-01T02:17:51.687Z,0
2018-06-01T02:18:52.239Z,0
2018-06-01T02:19:52.789Z,0
2018-06-01T02:20:53.338Z,0
2018-06-01T02:21:53.887Z,0
2018-06-01T02:22:54.434Z,0
2018-06-01T02:23:54.987Z,0
2018-06-01T02:24:55.541Z,0
2018-06-01T02:25:56.094Z,0
2018-06-01T02:26:56.650Z,0
2018-06-01T02:27:57.200Z,0
2018-06-01T02:28:57.749Z,0
2018-06-01T02:29:58.302Z,0
2018-06-01T02:30:58.852Z,0
2018-06-01T02:31:59.402Z,0
2018-06-01T02:32:59.954Z,0
2018-06-01T02:34:00.502Z,0
2018-06-01T02:35:01.048Z,0
2018-06-01T02:36:01.605Z,0
2018-06-01T02:37:02.153Z,0
2018-06-01T02:38:02.703Z,0
2018-06-01T02:39:03.254Z,0
2018-06-01T02:40:03.802Z,0
2018-06-01T02:41:04.360Z,0
2018-06-01T02:42:04.901Z,0
2018-06-01T02:43:05.454Z,0
2018-06-01T02:44:06.006Z,0
2018-06-01T02:45:06.553Z,0
2018-06-01T02:46:07.106Z,0
2018-06-01T02:47:07.669Z,0
2018-06-01T02:48:08.209Z,0
2018-06-01T02:49:08.761Z,0
2018-06-01T02:50:09.312Z,4
2018-06-01T02:51:09.864Z,0
2018-06-01T02:52:10.416Z,0
2018-06-01T02:53:10.967Z,0
2018-06-01T02:54:11.525Z,0
2018-06-01T02:55:12.071Z,0
2018-06-01T02:56:12.623Z,0
2018-06-01T02:57:13.174Z,4
2018-06-01T02:58:13.724Z,4
2018-06-01T02:59:14.277Z,4
2018-06-01T03:00:14.835Z,0
2018-06-01T03:01:15.381Z,0
2018-06-01T03:02:15.933Z,4
2018-06-01T03:03:16.483Z,4
2018-06-01T03:04:17.034Z,4
2018-06-01T03:05:17.588Z,4
2018-06-01T03:06:18.138Z,4
2018-06-01T03:07:18.702Z,4
2018-06-01T03:08:19.246Z,4
2018-06-01T03:09:19.801Z,4
2018-06-01T03:10:20.348Z,8
2018-06-01T03:11:20.908Z,4
2018-06-01T03:12:21.450Z,4
2018-06-01T03:13:21.997Z,8
2018-06-01T03:14:22.559Z,8
2018-06-01T03:15:23.098Z,8
2018-06-01T03:16:23.652Z,8
2018-06-01T03:17:24.204Z,8
2018-06-01T03:18:24.761Z,12
2018-06-01T03:19:25.311Z,12
2018-06-01T03:20:25.863Z,8
2018-06-01T03:21:26.420Z,12
2018-06-01T03:22:26.965Z,12
2018-06-01T03:23:27.521Z,16
2018-06-01T03:24:28.079Z,16
2018-06-01T03:25:28.619Z,20
2018-06-01T03:26:29.179Z,16
2018-06-01T03:27:29.735Z,20
2018-06-01T03:28:30.281Z,20
2018-06-01T03:29:30.833Z,24
2018-06-01T03:30:31.384Z,24
2018-06-01T03:31:31.937Z,24
2018-06-01T03:32:32.491Z,28
2018-06-01T03:33:33.037Z,28
2018-06-01T03:34:33.585Z,28
2018-06-01T03:35:34.131Z,32
2018-06-01T03:36:34.679Z,28
2018-06-01T03:37:35.238Z,28
2018-06-01T03:38:35.784Z,28
2018-06-01T03:39:36.338Z,28
2018-06-01T03:40:36.890Z,28
2018-06-01T03:41:37.448Z,28
2018-06-01T03:42:37.994Z,32
2018-06-01T03:43:38.548Z,32
2018-06-01T03:44:39.099Z,32
2018-06-01T03:45:39.653Z,32
2018-06-01T03:46:40.205Z,28
2018-06-01T03:47:40.755Z,32
2018-06-01T03:48:41.306Z,32
2018-06-01T03:49:41.861Z,32
2018-06-01T03:50:42.414Z,32
2018-06-01T03:51:42.968Z,32
2018-06-01T03:52:43.519Z,36
2018-06-01T03:53:44.065Z,32
2018-06-01T03:54:44.625Z,36
2018-06-01T03:55:45.173Z,36
2018-06-01T03:56:45.730Z,44
2018-06-01T03:57:46.275Z,44
2018-06-01T03:58:46.827Z,48
2018-06-01T03:59:47.379Z,48
2018-06-01T04:00:47.931Z,52
2018-06-01T04:01:48.480Z,56
2018-06-01T04:02:49.035Z,60
2018-06-01T04:03:49.585Z,60
2018-06-01T04:04:50.137Z,64
2018-06-01T04:05:50.691Z,64
2018-06-01T04:06:51.241Z,64
2018-06-01T04:07:51.788Z,60
2018-06-01T04:08:52.339Z,60
2018-06-01T04:09:52.892Z,60
2018-06-01T04:10:53.445Z,60
2018-06-01T04:11:53.996Z,60
2018-06-01T04:12:54.545Z,60
2018-06-01T04:13:55.101Z,56
2018-06-01T04:14:55.650Z,60
2018-06-01T04:15:56.195Z,56
2018-06-01T04:16:56.752Z,60
2018-06-01T04:17:57.303Z,64
2018-06-01T04:18:57.853Z,68
2018-06-01T04:19:58.403Z,72
2018-06-01T04:20:58.955Z,76
2018-06-01T04:21:59.508Z,84
2018-06-01T04:23:00.064Z,92
2018-06-01T04:24:00.620Z,100
2018-06-01T04:25:01.172Z,104
2018-06-01T04:26:01.726Z,108
2018-06-01T04:27:02.278Z,116
2018-06-01T04:28:02.831Z,124
2018-06-01T04:29:03.383Z,132
2018-06-01T04:30:03.938Z,140
2018-06-01T04:31:04.487Z,144
2018-06-01T04:32:05.040Z,152
2018-06-01T04:33:05.594Z,156
2018-06-01T04:34:06.347Z,156
2018-06-01T04:35:06.900Z,160
2018-06-01T04:36:07.457Z,160
2018-06-01T04:37:08.007Z,164
2018-06-01T04:38:08.563Z,168
2018-06-01T04:39:09.116Z,168
2018-06-01T04:40:09.672Z,168
2018-06-01T04:41:10.228Z,164
2018-06-01T04:42:10.785Z,148
2018-06-01T04:43:11.331Z,132
2018-06-01T04:44:11.885Z,116
2018-06-01T04:45:12.445Z,112
2018-06-01T04:46:12.989Z,112
2018-06-01T04:47:13.538Z,124
2018-06-01T04:48:14.091Z,144
2018-06-01T04:49:14.660Z,160
2018-06-01T04:50:15.194Z,172
2018-06-01T04:51:15.746Z,184
2018-06-01T04:52:16.297Z,184
2018-06-01T04:53:16.850Z,180
2018-06-01T04:54:17.407Z,176
2018-06-01T04:55:17.954Z,180
2018-06-01T04:56:18.510Z,196
2018-06-01T04:57:19.063Z,208
2018-06-01T04:58:19.618Z,216
2018-06-01T04:59:20.167Z,216
2018-06-01T05:00:20.717Z,216
2018-06-01T05:01:21.274Z,232
2018-06-01T05:02:21.821Z,248
2018-06-01T05:03:22.375Z,252
2018-06-01T05:04:22.928Z,260
2018-06-01T05:05:23.491Z,268
2018-06-01T05:06:24.040Z,276
2018-06-01T05:07:24.591Z,288
2018-06-01T05:08:25.144Z,312
2018-06-01T05:09:25.698Z,352
2018-06-01T05:10:26.254Z,396
2018-06-01T05:11:26.802Z,452
2018-06-01T05:12:27.356Z,512
2018-06-01T05:13:27.905Z,584
2018-06-01T05:14:28.461Z,660
2018-06-01T05:15:29.012Z,728
2018-06-01T05:16:29.562Z,808
2018-06-01T05:17:30.116Z,892
2018-06-01T05:18:30.671Z,996
2018-06-01T05:19:31.225Z,1072
2018-06-01T05:20:31.789Z,1156
2018-06-01T05:21:32.335Z,1248
2018-06-01T05:22:32.895Z,1332
2018-06-01T05:23:33.455Z,1424
2018-06-01T05:24:34.009Z,1516
2018-06-01T05:25:34.560Z,1604
2018-06-01T05:26:35.110Z,1676
2018-06-01T05:27:35.670Z,1760
2018-06-01T05:28:36.216Z,1840
2018-06-01T05:29:36.769Z,1924
2018-06-01T05:30:37.326Z,2036
2018-06-01T05:31:37.880Z,2168
2018-06-01T05:32:38.443Z,2312
2018-06-01T05:33:38.996Z,2476
2018-06-01T05:34:39.555Z,2648
2018-06-01T05:35:40.107Z,2836
2018-06-01T05:36:40.658Z,3028
2018-06-01T05:37:41.212Z,3208
2018-06-01T05:38:41.770Z,3368
2018-06-01T05:39:42.321Z,3536
2018-06-01T05:40:42.873Z,3724
2018-06-01T05:41:43.438Z,3920
2018-06-01T05:42:43.994Z,4120
2018-06-01T05:43:44.549Z,4312
2018-06-01T05:44:45.105Z,4572
2018-06-01T05:45:45.663Z,4832
2018-06-01T05:46:46.216Z,5140
2018-06-01T05:47:46.774Z,5464
2018-06-01T05:48:47.337Z,5768
2018-06-01T05:49:47.888Z,6104
2018-06-01T05:50:48.442Z,6464
2018-06-01T05:51:48.996Z,6764
2018-06-01T05:52:49.553Z,7072
2018-06-01T05:53:50.107Z,7372
2018-06-01T05:54:50.660Z,7772
2018-06-01T05:55:51.218Z,8156
2018-06-01T05:56:51.774Z,8420
2018-06-01T05:57:52.329Z,8644
2018-06-01T05:58:52.880Z,8856
2018-06-01T05:59:53.438Z,9052
2018-06-01T06:00:53.997Z,9224
2018-06-01T06:01:54.552Z,9372
2018-06-01T06:02:55.112Z,9560
2018-06-01T06:03:55.659Z,9600
2018-06-01T06:04:56.219Z,9552
2018-06-01T06:05:56.777Z,9428
2018-06-01T06:06:57.330Z,9296
2018-06-01T06:07:57.885Z,9272
2018-06-01T06:08:58.445Z,9184
2018-06-01T06:09:59.001Z,9176
2018-06-01T06:10:59.555Z,9108
2018-06-01T06:12:00.107Z,8988
2018-06-01T06:13:00.667Z,8828
2018-06-01T06:14:01.225Z,8668
2018-06-01T06:15:01.784Z,8540
2018-06-01T06:16:02.333Z,8540
2018-06-01T06:17:02.888Z,8700
2018-06-01T06:18:03.441Z,9068
2018-06-01T06:19:03.999Z,9588
2018-06-01T06:20:04.555Z,10196
2018-06-01T06:21:05.110Z,10844
2018-06-01T06:22:05.713Z,11520
2018-06-01T06:23:06.272Z,12212
2018-06-01T06:24:06.829Z,12888
2018-06-01T06:25:07.391Z,13484
2018-06-01T06:26:07.952Z,13980
2018-06-01T06:27:08.512Z,14284
2018-06-01T06:28:09.076Z,14444
2018-06-01T06:29:09.632Z,14544
2018-06-01T06:30:10.193Z,14528
2018-06-01T06:31:10.746Z,14440
2018-06-01T06:32:11.303Z,13740
2018-06-01T06:33:11.861Z,13716
2018-06-01T06:34:12.427Z,13636
2018-06-01T06:35:12.976Z,13624
2018-06-01T06:36:13.530Z,13752
2018-06-01T06:37:14.083Z,14040
2018-06-01T06:38:14.635Z,14420
2018-06-01T06:39:15.193Z,14768
2018-06-01T06:40:15.751Z,15012
2018-06-01T06:41:16.311Z,15136
2018-06-01T06:42:16.869Z,15372
2018-06-01T06:43:17.427Z,15624
2018-06-01T06:44:17.987Z,15828
2018-06-01T06:45:18.547Z,16028
2018-06-01T06:46:19.106Z,16328
2018-06-01T06:47:19.666Z,16804
2018-06-01T06:48:20.229Z,17424
2018-06-01T06:49:20.794Z,18220
2018-06-01T06:50:21.344Z,18920
2018-06-01T06:51:21.901Z,19776
2018-06-01T06:52:22.464Z,20384
2018-06-01T06:53:23.075Z,21024
2018-06-01T06:54:23.634Z,21632
2018-06-01T06:55:24.191Z,22304
2018-06-01T06:56:24.751Z,23136
2018-06-01T06:57:25.311Z,24128
2018-06-01T06:58:25.878Z,24992
2018-06-01T06:59:26.447Z,25792
2018-06-01T07:00:26.999Z,26336
2018-06-01T07:01:27.572Z,26784
2018-06-01T07:02:28.111Z,27040
2018-06-01T07:03:28.673Z,27200
2018-06-01T07:04:29.231Z,27264
2018-06-01T07:05:29.787Z,27072
2018-06-01T07:06:30.347Z,26880
2018-06-01T07:07:30.907Z,26112
2018-06-01T07:08:31.474Z,23488
2018-06-01T07:09:32.030Z,22656
2018-06-01T07:10:32.618Z,23136
2018-06-01T07:11:33.154Z,22336
2018-06-01T07:12:33.714Z,19904
2018-06-01T07:13:34.267Z,15884
2018-06-01T07:14:34.824Z,13420
2018-06-01T07:15:35.383Z,11680
2018-06-01T07:16:35.943Z,9396
2018-06-01T07:17:36.500Z,9112
2018-06-01T07:18:37.061Z,10368
2018-06-01T07:19:37.620Z,11608
2018-06-01T07:20:38.180Z,11172
2018-06-01T07:21:38.738Z,10152
2018-06-01T07:22:39.310Z,9668
2018-06-01T07:23:39.873Z,10836
2018-06-01T07:24:40.428Z,12404
2018-06-01T07:25:40.986Z,12440
2018-06-01T07:26:41.550Z,11504
2018-06-01T07:27:42.139Z,13544
2018-06-01T07:28:42.663Z,15000
2018-06-01T07:29:43.226Z,13488
2018-06-01T07:30:43.793Z,14176
2018-06-01T07:31:44.357Z,14240
2018-06-01T07:32:44.911Z,13356
2018-06-01T07:33:45.479Z,12576
2018-06-01T07:34:46.036Z,11388
2018-06-01T07:35:46.598Z,10356
2018-06-01T07:36:47.164Z,9360
2018-06-01T07:37:47.722Z,8440
2018-06-01T07:38:48.289Z,8096
2018-06-01T07:39:48.852Z,9204
2018-06-01T07:40:49.413Z,10804
2018-06-01T07:41:49.973Z,11496
2018-06-01T07:42:50.531Z,11328
2018-06-01T07:43:51.098Z,10748
2018-06-01T07:44:51.665Z,9568
2018-06-01T07:45:52.220Z,8972
2018-06-01T07:46:52.785Z,8716
2018-06-01T07:52:55.113Z,6592
2018-06-01T07:53:55.674Z,7136
2018-06-01T07:54:56.237Z,9156
2018-06-01T07:55:56.798Z,10436
2018-06-01T07:56:57.363Z,11460
2018-06-01T07:57:57.922Z,13120
2018-06-01T07:58:58.480Z,14904
2018-06-01T07:59:59.043Z,16892
2018-06-01T08:00:59.598Z,18344
2018-06-01T08:02:00.156Z,21280
2018-06-01T08:03:00.714Z,24064
2018-06-01T08:04:01.270Z,25824
2018-06-01T08:05:01.856Z,27072
2018-06-01T08:06:02.384Z,27648
2018-06-01T08:07:02.942Z,27776
2018-06-01T08:08:03.504Z,27808
2018-06-01T08:09:04.066Z,27424
2018-06-01T08:10:04.623Z,27008
2018-06-01T08:11:05.175Z,26784
2018-06-01T08:12:05.780Z,26176
2018-06-01T08:13:06.340Z,25216
2018-06-01T08:14:06.897Z,24128
2018-06-01T08:15:07.455Z,23008
2018-06-01T08:16:08.014Z,21760
2018-06-01T08:17:08.569Z,20576
2018-06-01T08:18:09.132Z,19808
2018-06-01T08:19:09.696Z,19456
2018-06-01T08:20:10.251Z,19424
2018-06-01T08:21:10.812Z,19584
2018-06-01T08:22:11.371Z,19584
2018-06-01T08:23:11.926Z,19456
2018-06-01T08:24:12.487Z,19200
2018-06-01T08:25:13.045Z,18428
2018-06-01T08:26:13.600Z,17780
2018-06-01T08:27:14.153Z,17312
2018-06-01T08:28:14.713Z,17028
2018-06-01T08:29:15.270Z,16740
2018-06-01T08:30:15.834Z,16736
2018-06-01T08:31:16.395Z,17268
2018-06-01T08:32:16.963Z,18348
2018-06-01T08:33:17.512Z,19776
2018-06-01T08:34:18.069Z,20896
2018-06-01T08:35:18.629Z,21408
2018-06-01T08:36:19.191Z,21408
2018-06-01T08:37:19.751Z,21216
2018-06-01T08:38:20.311Z,20704
2018-06-01T08:39:20.877Z,19712
2018-06-01T08:40:21.428Z,18608
2018-06-01T08:41:21.988Z,18148
2018-06-01T08:42:22.541Z,18092
2018-06-01T08:43:23.099Z,18736
2018-06-01T08:44:23.662Z,19968
2018-06-01T08:45:24.221Z,21216
2018-06-01T08:46:24.782Z,21856
2018-06-01T08:47:25.337Z,21728
2018-06-01T08:48:25.900Z,21216
2018-06-01T08:49:26.460Z,20992
2018-06-01T08:50:27.014Z,20992
2018-06-01T08:51:27.576Z,19968
2018-06-01T08:52:28.157Z,18120
2018-06-01T08:53:28.694Z,16200
2018-06-01T08:54:29.255Z,14012
2018-06-01T08:55:29.811Z,12040
2018-06-01T08:56:30.365Z,10552
2018-06-01T08:57:30.923Z,9580
2018-06-01T08:58:31.491Z,8656
2018-06-01T08:59:32.038Z,7960
2018-06-01T09:00:32.595Z,7548
2018-06-01T09:01:33.148Z,7636
2018-06-01T09:02:33.711Z,7832
2018-06-01T09:03:34.265Z,8012
2018-06-01T09:04:34.878Z,8096
2018-06-01T09:05:35.384Z,7296
2018-06-01T09:06:35.934Z,5912
2018-06-01T09:07:36.486Z,4764
2018-06-01T09:08:37.043Z,4180
2018-06-01T09:09:37.596Z,3912
2018-06-01T09:10:38.206Z,4008
2018-06-01T09:11:38.762Z,4352
2018-06-01T09:12:39.321Z,5244
2018-06-01T09:13:39.880Z,5620
2018-06-01T09:14:40.440Z,5676
2018-06-01T09:15:41.002Z,5844
2018-06-01T09:16:41.577Z,6276
2018-06-01T09:17:42.120Z,6868
2018-06-01T09:18:42.672Z,7196
2018-06-01T09:19:43.231Z,7504
2018-06-01T09:20:43.790Z,8176
2018-06-01T09:21:44.350Z,9648
2018-06-01T09:22:44.911Z,10576
2018-06-01T09:23:45.471Z,11560
2018-06-01T09:24:46.029Z,12712
2018-06-01T09:25:46.588Z,15080
2018-06-01T09:26:47.145Z,15876
2018-06-01T09:27:47.699Z,15692
2018-06-01T09:28:48.249Z,14980
2018-06-01T09:29:48.807Z,13056
2018-06-01T09:30:49.365Z,11168
2018-06-01T09:31:49.918Z,10032
2018-06-01T09:32:50.490Z,9292
2018-06-01T09:33:51.048Z,9376
2018-06-01T09:34:51.608Z,9824
2018-06-01T09:35:52.170Z,10288
2018-06-01T09:36:52.728Z,10400
2018-06-01T09:37:53.286Z,11080
2018-06-01T09:38:53.847Z,12592
2018-06-01T09:39:54.406Z,13376
2018-06-01T09:40:54.963Z,12920
2018-06-01T09:41:55.521Z,11260
2018-06-01T09:42:56.074Z,9320
2018-06-01T09:43:56.641Z,7708
2018-06-01T09:44:57.190Z,7060
2018-06-01T09:45:57.752Z,7604
2018-06-01T09:46:58.312Z,8628
2018-06-01T09:47:58.873Z,8952
2018-06-01T09:48:59.430Z,7920
2018-06-01T09:49:59.990Z,7388
2018-06-01T09:51:00.554Z,7596
2018-06-01T09:52:01.111Z,8412
2018-06-01T09:53:01.670Z,9620
2018-06-01T09:54:02.227Z,10628
2018-06-01T09:55:02.792Z,12212
2018-06-01T09:56:03.350Z,14668
2018-06-01T09:57:03.915Z,15152
2018-06-01T09:58:04.463Z,14452
2018-06-01T09:59:05.020Z,13980
2018-06-01T10:00:05.577Z,14200
2018-06-01T10:01:06.133Z,14904
2018-06-01T10:02:06.692Z,14544
2018-06-01T10:03:07.247Z,12668
2018-06-01T10:04:07.809Z,11448
2018-06-01T10:05:08.367Z,10716
2018-06-01T10:06:08.924Z,10536
2018-06-01T10:07:09.485Z,10660
2018-06-01T10:08:10.044Z,10948
2018-06-01T10:09:10.603Z,11592
2018-06-01T10:10:11.162Z,12088
2018-06-01T10:11:11.724Z,12448
2018-06-01T10:12:12.278Z,13632
2018-06-01T10:13:12.836Z,13556
2018-06-01T10:14:13.399Z,14832
2018-06-01T10:15:13.956Z,15088
2018-06-01T10:16:14.523Z,13780
2018-06-01T10:17:15.085Z,13644
2018-06-01T10:18:59.865Z,14184
2018-06-01T10:20:00.477Z,16752
2018-06-01T10:21:01.007Z,17952
2018-06-01T10:22:01.614Z,17608
2018-06-01T10:23:02.185Z,16856
2018-06-01T10:24:02.732Z,15720
2018-06-01T10:25:03.294Z,13952
2018-06-01T10:26:03.851Z,12404
2018-06-01T10:27:04.403Z,11024
2018-06-01T10:28:04.962Z,9648
2018-06-01T10:29:05.525Z,8840
2018-06-01T10:30:06.092Z,8760
2018-06-01T10:31:06.674Z,9592
2018-06-01T10:32:07.216Z,10120
2018-06-01T10:33:07.780Z,8804
2018-06-01T10:34:08.338Z,7424
2018-06-01T10:35:08.900Z,7336
2018-06-01T10:36:09.457Z,8484
2018-06-01T10:37:10.021Z,10032
2018-06-01T10:38:10.595Z,11872
2018-06-01T10:39:11.153Z,12292
2018-06-01T10:40:11.719Z,11296
2018-06-01T10:41:12.274Z,9116
2018-06-01T10:42:12.843Z,6828
2018-06-01T10:43:13.403Z,6216
2018-06-01T10:44:13.960Z,6076
2018-06-01T10:45:14.566Z,5280
2018-06-01T10:46:15.079Z,4712
2018-06-01T10:47:15.628Z,3736
2018-06-01T10:48:16.182Z,3916
2018-06-01T10:49:16.741Z,4668
2018-06-01T10:50:17.304Z,5012
2018-06-01T10:51:17.855Z,5588
2018-06-01T10:52:18.412Z,8844
2018-06-01T10:53:18.966Z,11272
2018-06-01T10:54:19.553Z,11624
2018-06-01T10:55:20.081Z,10880
2018-06-01T10:56:20.642Z,11792
2018-06-01T10:57:21.200Z,10568
2018-06-01T10:58:21.756Z,7196
2018-06-01T10:59:22.314Z,5560
2018-06-01T11:00:22.874Z,4276
2018-06-01T11:01:23.431Z,3744
2018-06-01T11:02:23.986Z,3276
2018-06-01T11:03:24.544Z,3412
2018-06-01T11:04:25.110Z,3624
2018-06-01T11:05:25.668Z,3728
2018-06-01T11:06:26.225Z,3932
2018-06-01T11:07:26.785Z,4112
2018-06-01T11:08:27.352Z,4436
2018-06-01T11:09:27.901Z,4832
2018-06-01T11:10:28.458Z,4636
2018-06-01T11:11:29.023Z,5072
2018-06-01T11:12:29.593Z,5148
2018-06-01T11:13:30.138Z,5140
2018-06-01T11:14:30.750Z,5868
2018-06-01T11:15:31.253Z,6816
2018-06-01T11:16:31.815Z,7628
2018-06-01T11:17:32.368Z,9696
2018-06-01T11:18:32.921Z,9612
2018-06-01T11:19:33.483Z,10284
2018-06-01T11:20:34.035Z,8560
2018-06-01T11:21:34.665Z,8592
2018-06-01T11:22:35.152Z,9424
2018-06-01T11:23:35.708Z,10000
2018-06-01T11:24:36.260Z,15164
2018-06-01T11:25:36.815Z,16380
2018-06-01T11:26:37.368Z,15020
2018-06-01T11:27:37.951Z,13380
2018-06-01T11:28:38.508Z,12156
2018-06-01T11:29:39.066Z,9884
2018-06-01T11:30:39.631Z,10716
2018-06-01T11:31:40.188Z,11032
2018-06-01T11:32:40.752Z,10828
2018-06-01T11:33:41.327Z,10512
2018-06-01T11:34:41.886Z,10912
2018-06-01T11:35:42.445Z,11072
2018-06-01T11:36:43.010Z,11948
2018-06-01T11:37:43.568Z,13216
2018-06-01T11:38:44.126Z,14312
2018-06-01T11:39:44.685Z,12868
2018-06-01T11:40:45.248Z,10612
2018-06-01T11:41:45.802Z,10508
2018-06-01T11:42:46.364Z,12152
2018-06-01T11:43:46.922Z,11176
2018-06-01T11:44:47.481Z,10528
2018-06-01T11:45:48.041Z,12344
2018-06-01T11:46:48.596Z,12556
2018-06-01T11:47:49.151Z,12176
2018-06-01T11:48:49.710Z,11444
2018-06-01T11:49:50.278Z,10904
2018-06-01T11:50:50.827Z,11284
2018-06-01T11:51:51.388Z,9844
2018-06-01T11:52:51.939Z,8476
2018-06-01T11:53:52.495Z,8508
2018-06-01T11:54:53.056Z,6604
2018-06-01T11:55:53.618Z,5104
2018-06-01T11:56:54.175Z,5704
2018-06-01T11:57:54.741Z,4640
2018-06-01T11:58:55.303Z,4404
2018-06-01T11:59:55.856Z,3992
2018-06-01T12:00:56.418Z,4828
2018-06-01T12:01:56.983Z,4580
2018-06-01T12:02:57.550Z,5288
2018-06-01T12:03:58.111Z,7716
2018-06-01T12:04:58.675Z,8812
2018-06-01T12:05:59.233Z,10532
2018-06-01T12:06:59.796Z,10320
2018-06-01T12:08:00.359Z,10188
2018-06-01T12:09:00.962Z,10628
2018-06-01T12:10:01.474Z,9392
2018-06-01T12:11:02.169Z,9392
2018-06-01T12:12:02.584Z,8564
2018-06-01T12:13:03.143Z,7872
2018-06-01T12:14:03.701Z,8952
2018-06-01T12:15:04.259Z,7164
2018-06-01T12:16:04.820Z,6808
2018-06-01T12:17:05.373Z,7308
2018-06-01T12:18:05.930Z,8264
2018-06-01T12:19:06.487Z,6676
2018-06-01T12:20:07.045Z,6320
2018-06-01T12:21:07.604Z,6424
2018-06-01T12:22:08.182Z,5556
2018-06-01T12:23:08.726Z,6384
2018-06-01T12:24:09.280Z,5500
2018-06-01T12:25:09.832Z,5356
2018-06-01T12:26:10.387Z,5132
2018-06-01T12:27:10.951Z,5188
2018-06-01T12:28:11.507Z,4820
2018-06-01T12:29:12.068Z,5516
2018-06-01T12:30:12.612Z,6144
2018-06-01T12:31:13.170Z,7592
2018-06-01T12:32:13.722Z,9616
2018-06-01T12:33:14.284Z,10452
2018-06-01T12:34:14.850Z,14100
2018-06-01T12:35:15.403Z,12068
2018-06-01T12:36:15.961Z,8396
2018-06-01T12:37:16.519Z,9044
2018-06-01T12:38:17.078Z,9128
2018-06-01T12:39:17.636Z,8748
2018-06-01T12:40:18.188Z,7752
2018-06-01T12:41:18.751Z,7692
2018-06-01T12:42:19.305Z,7540
2018-06-01T12:43:19.860Z,12032
2018-06-01T12:44:20.418Z,15272
2018-06-01T12:45:20.978Z,13468
2018-06-01T12:46:21.535Z,17716
2018-06-01T12:47:22.098Z,23104
2018-06-01T12:48:22.658Z,24704
2018-06-01T12:49:23.219Z,21664
2018-06-01T12:50:23.778Z,21216
2018-06-01T12:51:24.334Z,17692
2018-06-01T12:52:24.886Z,16808
2018-06-01T12:53:25.442Z,20352
2018-06-01T12:54:26.002Z,16968
2018-06-01T12:55:26.555Z,14584
2018-06-01T12:56:27.118Z,13424
2018-06-01T12:57:27.752Z,12344
2018-06-01T12:58:28.311Z,12304
2018-06-01T12:59:28.874Z,13272
2018-06-01T13:00:29.444Z,12444
2018-06-01T13:01:29.996Z,13968
2018-06-01T13:02:30.557Z,13260
2018-06-01T13:03:31.156Z,12740
2018-06-01T13:04:31.683Z,12440
2018-06-01T13:05:32.241Z,15364
2018-06-01T13:06:32.823Z,19300
2018-06-01T13:07:33.371Z,25472
2018-06-01T13:08:33.938Z,23488
2018-06-01T13:09:34.497Z,16588
2018-06-01T13:10:35.055Z,24992
2018-06-01T13:11:35.612Z,29312
2018-06-01T13:12:36.176Z,27456
2018-06-01T13:13:36.734Z,24448
2018-06-01T13:14:37.292Z,27168
2018-06-01T13:15:37.857Z,24384
2018-06-01T13:16:38.408Z,24704
2018-06-01T13:17:38.970Z,23936
2018-06-01T13:18:39.531Z,21056
2018-06-01T13:19:40.084Z,22112
2018-06-01T13:20:40.707Z,21504
2018-06-01T13:21:41.208Z,20576
2018-06-01T13:22:41.774Z,21792
2018-06-01T13:23:42.330Z,29088
2018-06-01T13:24:42.895Z,35968
2018-06-01T13:25:43.455Z,32864
2018-06-01T13:26:44.016Z,41632
2018-06-01T13:27:44.575Z,32960
2018-06-01T13:28:45.133Z,32224
2018-06-01T13:29:45.735Z,36320
2018-06-01T13:30:46.263Z,28256
2018-06-01T13:31:46.814Z,25760
2018-06-01T13:32:47.387Z,24032
2018-06-01T13:33:47.942Z,29952
2018-06-01T13:34:48.505Z,26848
2018-06-01T13:35:49.064Z,26400
2018-06-01T13:36:49.627Z,22848
2018-06-01T13:37:50.192Z,22560
2018-06-01T13:38:50.748Z,22208
2018-06-01T13:39:51.306Z,25824
2018-06-01T13:40:51.865Z,26304
2018-06-01T13:41:52.449Z,21504
2018-06-01T13:42:52.989Z,21952
2018-06-01T13:43:53.563Z,21376
2018-06-01T13:44:54.118Z,17892
2018-06-01T13:45:54.688Z,17856
2018-06-01T13:46:55.249Z,15608
2018-06-01T13:47:55.801Z,15136